createdAt,value
2023-04-19T00:03:47.801Z,102719.22
2023-04-19T00:08:49.530Z,102717.91
2023-04-19T00:13:51.267Z,102725.53
2023-04-19T00:18:53.041Z,102725.63
2023-04-19T00:23:54.713Z,102712.28
2023-04-19T00:28:56.339Z,102725.63
2023-04-19T00:33:57.998Z,102724.16
2023-04-19T00:39:01.586Z,102716.38
2023-04-19T00:44:03.254Z,102712.16
2023-04-19T00:49:05.594Z,102720.06
2023-04-19T00:54:10.175Z,102706.94
2023-04-19T00:59:12.872Z,102705.16
2023-04-19T01:04:16.090Z,102704.19
2023-04-19T01:09:18.081Z,102702.72
2023-04-19T01:14:19.745Z,102706.09
2023-04-19T01:19:21.485Z,102696.25
2023-04-19T01:24:23.064Z,102699.34
2023-04-19T01:29:24.823Z,102690.75
2023-04-19T01:34:26.484Z,102694.25
2023-04-19T01:39:28.280Z,102683.03
2023-04-19T01:44:30.597Z,102692.00
2023-04-19T01:49:32.203Z,102693.25
2023-04-19T01:54:33.806Z,102694.75
2023-04-19T01:59:38.339Z,102680.91
2023-04-19T02:04:40.607Z,102677.03
2023-04-19T02:09:42.237Z,102682.56
2023-04-19T02:14:43.893Z,102678.03
2023-04-19T02:19:45.634Z,102684.78
2023-04-19T02:24:49.579Z,102683.31
2023-04-19T02:29:51.650Z,102688.41
2023-04-19T02:34:53.339Z,102683.03
2023-04-19T02:39:54.913Z,102696.13
2023-04-19T02:44:56.559Z,102695.97
2023-04-19T02:50:00.524Z,102701.63
2023-04-19T02:55:02.648Z,102704.38
2023-04-19T03:00:08.939Z,102706.25
2023-04-19T03:05:16.886Z,102702.94
2023-04-19T03:10:18.585Z,102694.75
2023-04-19T03:15:23.090Z,102688.75
2023-04-19T03:20:24.884Z,102688.41
2023-04-19T03:25:26.623Z,102685.50
2023-04-19T03:30:39.813Z,102688.09
2023-04-19T03:35:41.461Z,102680.44
2023-04-19T03:40:47.193Z,102681.19
2023-04-19T03:45:51.013Z,102687.25
2023-04-19T03:50:53.050Z,102685.25
2023-04-19T03:55:55.054Z,102686.28
2023-04-19T04:00:57.057Z,102678.09
2023-04-19T04:05:59.007Z,102682.94
2023-04-19T04:11:01.236Z,102678.88
2023-04-19T04:16:03.697Z,102682.50
2023-04-19T04:21:09.344Z,102688.50
2023-04-19T04:26:13.921Z,102688.41
2023-04-19T04:31:36.279Z,102696.78
2023-04-19T04:36:38.853Z,102692.66
2023-04-19T04:41:42.429Z,102688.13
2023-04-19T04:46:44.318Z,102692.53
2023-04-19T04:51:48.729Z,102682.31
2023-04-19T04:56:50.898Z,102690.31
2023-04-19T05:01:52.997Z,102696.28
2023-04-19T05:06:55.125Z,102699.41
2023-04-19T05:12:01.874Z,102695.66
2023-04-19T05:17:06.567Z,102704.03
2023-04-19T05:22:09.297Z,102705.56
2023-04-19T05:27:12.928Z,102714.00
2023-04-19T05:32:14.602Z,102716.50
2023-04-19T05:37:24.145Z,102714.88
2023-04-19T05:42:26.072Z,102719.09
2023-04-19T05:47:27.782Z,102720.25
2023-04-19T05:52:46.660Z,102720.38
2023-04-19T05:57:49.767Z,102714.88
2023-04-19T06:02:51.616Z,102716.75
2023-04-19T06:13:01.353Z,102727.47
2023-04-19T06:18:03.158Z,102732.09
2023-04-19T06:23:06.355Z,102754.44
2023-04-19T06:28:08.097Z,102733.81
2023-04-19T06:33:09.724Z,102747.97
2023-04-19T06:38:11.396Z,102735.47
2023-04-19T06:43:13.282Z,102737.44
2023-04-19T06:48:15.029Z,102745.94
2023-04-19T06:53:17.055Z,102743.78
2023-04-19T06:58:18.677Z,102743.97
2023-04-19T07:03:21.049Z,102751.69
2023-04-19T07:08:27.886Z,102748.94
2023-04-19T07:13:33.930Z,102748.94
2023-04-19T07:18:36.280Z,102755.13
2023-04-19T07:23:38.206Z,102751.94
2023-04-19T07:28:40.495Z,102740.19
2023-04-19T07:33:43.831Z,102742.75
2023-04-19T07:38:45.583Z,102737.22
2023-04-19T07:43:47.250Z,102746.94
2023-04-19T07:48:49.111Z,102735.84
2023-04-19T07:53:51.516Z,102738.91
2023-04-19T07:59:04.493Z,102740.94
2023-04-19T08:04:10.214Z,102742.41
2023-04-19T08:09:12.036Z,102740.59
2023-04-19T08:14:28.401Z,102742.50
2023-04-19T08:19:34.508Z,102737.72
2023-04-19T08:24:37.240Z,102735.66
2023-04-19T08:29:38.951Z,102736.91
2023-04-19T08:34:40.922Z,102736.78
2023-04-19T08:39:42.524Z,102736.31
2023-04-19T08:45:05.712Z,102732.41
2023-04-19T08:50:24.082Z,102719.81
2023-04-19T08:55:32.178Z,102714.00
2023-04-19T09:00:34.901Z,102715.03
2023-04-19T09:05:38.493Z,102718.78
2023-04-19T09:10:52.530Z,102717.31
2023-04-19T09:15:56.948Z,102715.78
2023-04-19T09:20:58.960Z,102717.13
2023-04-19T09:31:35.748Z,102724.22
2023-04-19T09:36:37.757Z,102722.13
2023-04-19T09:41:53.488Z,102709.41
2023-04-19T09:46:55.763Z,102707.38
2023-04-19T09:51:58.070Z,102697.59
2023-04-19T09:57:02.764Z,102697.53
2023-04-19T10:02:10.594Z,102697.03
2023-04-19T10:12:40.690Z,102706.13
2023-04-19T10:17:39.651Z,102702.72
2023-04-19T10:22:41.647Z,102706.97
2023-04-19T10:27:46.710Z,102701.03
2023-04-19T10:32:59.261Z,102699.13
2023-04-19T10:38:07.354Z,102700.31
2023-04-19T10:43:16.997Z,102680.69
2023-04-19T10:48:30.760Z,102680.31
2023-04-19T10:53:50.952Z,102690.53
2023-04-19T10:59:02.047Z,102681.97
2023-04-19T11:04:04.589Z,102669.41
2023-04-19T11:09:10.779Z,102673.00
2023-04-19T11:14:14.431Z,102674.59
2023-04-19T11:19:17.123Z,102658.88
2023-04-19T11:24:20.726Z,102661.75
2023-04-19T11:29:22.683Z,102649.25
2023-04-19T11:34:24.683Z,102648.91
2023-04-19T11:39:26.685Z,102647.25
2023-04-19T11:44:28.422Z,102650.53
2023-04-19T11:49:32.315Z,102619.69
2023-04-19T11:54:34.203Z,102630.69
2023-04-19T11:59:39.909Z,102613.56
2023-04-19T12:04:42.049Z,102625.41
2023-04-19T12:09:43.860Z,102615.00
2023-04-19T12:14:52.823Z,102604.03
2023-04-19T12:19:54.458Z,102604.38
2023-04-19T12:24:57.162Z,102607.34
2023-04-19T12:29:58.841Z,102595.56
2023-04-19T12:35:00.523Z,102593.13
2023-04-19T12:40:07.070Z,102586.00
2023-04-19T12:45:09.443Z,102598.66
2023-04-19T12:50:12.212Z,102585.81
2023-04-19T12:55:13.970Z,102582.53
2023-04-19T13:00:15.824Z,102581.63
2023-04-19T13:05:17.526Z,102567.03
2023-04-19T13:10:19.307Z,102563.72
2023-04-19T13:15:21.025Z,102557.28
2023-04-19T13:20:22.786Z,102538.66
2023-04-19T13:25:24.533Z,102542.69
2023-04-19T13:30:26.314Z,102530.16
2023-04-19T13:35:28.110Z,102504.34
2023-04-19T13:40:35.402Z,102510.75
2023-04-19T13:45:40.921Z,102519.75
2023-04-19T13:50:42.641Z,102505.44
2023-04-19T13:55:44.206Z,102500.56
2023-04-19T14:00:46.192Z,102505.91
2023-04-19T14:05:48.055Z,102499.22
2023-04-19T14:10:50.950Z,102488.25
2023-04-19T14:15:52.560Z,102487.66
2023-04-19T14:20:55.194Z,102484.41
2023-04-19T14:25:56.901Z,102475.22
2023-04-19T14:30:58.698Z,102461.16
2023-04-19T14:36:01.118Z,102448.31
2023-04-19T14:41:03.572Z,102440.91
2023-04-19T14:46:05.458Z,102434.34
2023-04-19T14:51:07.508Z,102433.88
2023-04-19T14:56:09.219Z,102416.91
2023-04-19T15:01:15.249Z,102418.53
2023-04-19T15:06:17.014Z,102419.94
2023-04-19T15:11:19.141Z,102404.69
2023-04-19T15:16:20.959Z,102408.97
2023-04-19T15:21:24.533Z,102407.63
2023-04-19T15:26:26.570Z,102399.22
2023-04-19T15:31:28.312Z,102389.81
2023-04-19T15:36:29.988Z,102387.38
2023-04-19T15:41:31.635Z,102371.38
2023-04-19T15:46:34.444Z,102377.84
2023-04-19T15:51:37.200Z,102375.09
2023-04-19T15:56:39.031Z,102378.97
2023-04-19T16:01:41.030Z,102380.00
2023-04-19T16:06:42.839Z,102382.50
2023-04-19T16:11:44.854Z,102375.69
2023-04-19T16:16:50.394Z,102385.09
2023-04-19T16:21:52.170Z,102377.84
2023-04-19T16:26:53.738Z,102379.94
2023-04-19T16:31:55.419Z,102371.81
2023-04-19T16:36:57.223Z,102373.91
2023-04-19T16:41:58.949Z,102375.91
2023-04-19T16:47:00.675Z,102381.53
2023-04-19T16:52:02.305Z,102375.28
2023-04-19T16:57:04.023Z,102381.16
2023-04-19T17:02:07.619Z,102371.97
2023-04-19T17:07:09.642Z,102367.28
2023-04-19T17:12:11.261Z,102370.06
2023-04-19T17:17:12.871Z,102364.34
2023-04-19T17:22:15.082Z,102365.91
2023-04-19T17:27:16.705Z,102367.28
2023-04-19T17:32:18.626Z,102353.41
2023-04-19T17:37:20.410Z,102357.91
2023-04-19T17:42:23.123Z,102357.91
2023-04-19T17:47:24.868Z,102352.03
2023-04-19T17:52:26.568Z,102361.97
2023-04-19T17:57:29.790Z,102357.84
2023-04-19T18:02:31.800Z,102357.50
2023-04-19T18:07:36.871Z,102339.78
2023-04-19T18:12:38.752Z,102344.72
2023-04-19T18:17:41.151Z,102354.66
2023-04-19T18:22:42.947Z,102349.50
2023-04-19T18:27:48.493Z,102350.38
2023-04-19T18:32:53.621Z,102352.53
2023-04-19T18:37:55.461Z,102356.03
2023-04-19T18:42:57.124Z,102365.59
2023-04-19T18:48:01.100Z,102376.00
2023-04-19T18:53:04.883Z,102374.00
2023-04-19T18:58:07.678Z,102375.72
2023-04-19T19:03:32.151Z,102396.53
2023-04-19T19:08:31.196Z,102393.69
2023-04-19T19:13:32.996Z,102391.09
2023-04-19T19:18:34.976Z,102398.41
2023-04-19T19:23:42.518Z,102388.16
2023-04-19T19:28:44.767Z,102401.66
2023-04-19T19:33:53.862Z,102401.31
2023-04-19T19:39:10.832Z,102401.72
2023-04-19T19:44:12.525Z,102403.53
2023-04-19T19:49:14.656Z,102412.53
2023-04-19T19:54:16.560Z,102401.69
2023-04-19T19:59:20.102Z,102398.94
2023-04-19T20:04:22.976Z,102411.88
2023-04-19T20:09:27.530Z,102415.81
2023-04-19T20:14:29.512Z,102422.34
2023-04-19T20:19:31.100Z,102418.72
2023-04-19T20:24:33.769Z,102423.59
2023-04-19T20:29:35.470Z,102429.19
2023-04-19T20:34:40.590Z,102431.13
2023-04-19T20:39:42.263Z,102427.28
2023-04-19T20:44:44.471Z,102433.28
2023-04-19T20:49:46.070Z,102434.28
2023-04-19T20:54:47.701Z,102433.13
2023-04-19T20:59:49.351Z,102431.69
2023-04-19T21:04:51.014Z,102437.47
2023-04-19T21:09:52.766Z,102434.91
2023-04-19T21:14:54.771Z,102443.56
2023-04-19T21:19:56.392Z,102443.44
2023-04-19T21:24:58.128Z,102437.94
2023-04-19T21:30:00.703Z,102443.75
2023-04-19T21:35:02.582Z,102445.34
2023-04-19T21:40:04.802Z,102434.31
2023-04-19T21:45:07.837Z,102437.38
2023-04-19T21:50:09.913Z,102437.94
2023-04-19T21:55:11.638Z,102436.06
2023-04-19T22:00:13.917Z,102433.88
2023-04-19T22:05:16.729Z,102457.50
2023-04-19T22:10:18.635Z,102456.31
2023-04-19T22:15:20.767Z,102445.91
2023-04-19T22:20:22.659Z,102453.00
2023-04-19T22:25:24.505Z,102444.72
2023-04-19T22:30:26.292Z,102453.44
2023-04-19T22:35:27.922Z,102446.78
2023-04-19T22:40:29.601Z,102443.44
2023-04-19T22:45:32.887Z,102445.31
2023-04-19T22:50:34.490Z,102452.41
2023-04-19T22:55:38.438Z,102443.25
2023-04-19T23:00:40.277Z,102433.44
2023-04-19T23:05:42.061Z,102437.19
2023-04-19T23:10:45.277Z,102428.06
2023-04-19T23:15:48.175Z,102433.13
2023-04-19T23:20:49.805Z,102419.66
2023-04-19T23:25:51.481Z,102417.63
2023-04-19T23:30:53.195Z,102422.69
2023-04-19T23:35:54.864Z,102414.56
2023-04-19T23:40:56.433Z,102411.66
2023-04-19T23:45:58.240Z,102413.97
2023-04-19T23:51:00.070Z,102412.09
2023-04-19T23:56:01.779Z,102407.31
